Airfield :
LOGIN :

Register | Disclaimer

   EN    FR    IT 

 










Legend :    VFR   Marginal VFR   IFR   Intensive IFR   Very Intensive IFR
Visi :
Ceiling :
>= 8 km
>= 3000ft
5 to 8 km
1000 to 3000 ft
1500m to 5 km
500 to 1000 ft
800 to 1500m
200 to 500 ft
< 800m
< 200 ft
Symbols :   Thunderstorms  Fog  Heavy snow  Heavy precipitations  Wind > 20 kt
SIGMETs :     Misc.  Thunderstorms  Icing  Turbulence  Mountain Waves  Volcanic Ashes






- Airport Elevation : 392 ft
- IATA code : CDG


LFPG - Paris-Aeroport Charles De Gaulle

CURRENT METAR :
  • 141500Z 34004KT 290V010 9999 FEW036 BKN260 19/09 Q1021 NOSIG

EXPIRED METARs :
  • 141430Z 02003KT 320V080 9999 FEW036 BKN260 19/09 Q1022 NOSIG
  • 141400Z 30003KT 230V030 9999 FEW036 BKN260 19/10 Q1022 NOSIG
  • 141330Z 26003KT 190V310 9999 FEW033 BKN260 18/09 Q1023 NOSIG
  • 141300Z 28004KT 190V300 9999 FEW033 BKN260 18/09 Q1023 NOSIG
  • 141230Z VRB03KT 9999 FEW028 BKN260 18/10 Q1024 NOSIG
  • 141200Z VRB03KT 9999 FEW028 BKN260 17/09 Q1024 NOSIG
  • 141130Z 30004KT 200V010 9999 FEW022 BKN260 17/09 Q1024 NOSIG
  • 141100Z VRB03KT 9999 FEW018 BKN260 16/10 Q1025 NOSIG
  • 141030Z 35003KT 280V030 9999 SCT016 BKN260 15/09 Q1025 NOSIG

TAF TAF LFPG
Valid from the 14 at 12:00 until the 15 at 18:00 UTC


141100Z 1412/1518 35005KT 9999 FEW025 BKN260 TX19/1415Z TN08/1505Z
BECMG 1507/1509 27015G25KT
BECMG 1510/1512 27020G35KT
TEMPO 1514/1516 2000 RA
ATIS : +33 1 48 62 10 92



MET'MAP, your aeronautical weather chart ! - Copyright ORBIFLY December 2007 - Disclaimer

ORBIFLY MET'MAP TEAM :

Programming & Development : Alexandra Zaïnal
Original concept : Baudouin d'Aumeries
Technical & hardware support : Manuel Goepfert
Assistance : Marc-Olivier Méhu




SOURCES & CREDITS :

   NOAA